sensor_id;sensor_type;location;lat;lon;timestamp;pressure;altitude;pressure_sealevel;temperature
67515;BMP280;60646;55.802;37.032;2022-11-15T00:01:55;100389.63;;;5.65
67515;BMP280;60646;55.802;37.032;2022-11-15T00:04:39;100401.72;;;5.66
67515;BMP280;60646;55.802;37.032;2022-11-15T00:07:23;100413.22;;;5.72
67515;BMP280;60646;55.802;37.032;2022-11-15T00:10:08;100405.53;;;5.65
67515;BMP280;60646;55.802;37.032;2022-11-15T00:12:52;100383.69;;;5.61
67515;BMP280;60646;55.802;37.032;2022-11-15T00:15:40;100373.94;;;5.58
67515;BMP280;60646;55.802;37.032;2022-11-15T00:18:25;100383.47;;;5.68
67515;BMP280;60646;55.802;37.032;2022-11-15T00:21:13;100389.38;;;5.72
67515;BMP280;60646;55.802;37.032;2022-11-15T00:23:58;100358.34;;;5.60
67515;BMP280;60646;55.802;37.032;2022-11-15T00:26:42;100369.91;;;5.66
67515;BMP280;60646;55.802;37.032;2022-11-15T00:29:27;100363.63;;;5.60
67515;BMP280;60646;55.802;37.032;2022-11-15T00:32:11;100374.47;;;5.65
67515;BMP280;60646;55.802;37.032;2022-11-15T00:34:55;100351.47;;;5.50
67515;BMP280;60646;55.802;37.032;2022-11-15T00:37:40;100372.22;;;5.64
67515;BMP280;60646;55.802;37.032;2022-11-15T00:40:24;100353.28;;;5.53
67515;BMP280;60646;55.802;37.032;2022-11-15T00:43:09;100360.06;;;5.54
67515;BMP280;60646;55.802;37.032;2022-11-15T00:45:53;100362.69;;;5.54
67515;BMP280;60646;55.802;37.032;2022-11-15T00:48:37;100371.59;;;5.60
67515;BMP280;60646;55.802;37.032;2022-11-15T00:51:21;100370.03;;;5.62
67515;BMP280;60646;55.802;37.032;2022-11-15T00:54:06;100358.88;;;5.55
67515;BMP280;60646;55.802;37.032;2022-11-15T00:56:50;100361.00;;;5.60
67515;BMP280;60646;55.802;37.032;2022-11-15T00:59:34;100356.44;;;5.60
67515;BMP280;60646;55.802;37.032;2022-11-15T01:02:18;100327.63;;;5.50
67515;BMP280;60646;55.802;37.032;2022-11-15T01:05:03;100336.84;;;5.58
67515;BMP280;60646;55.802;37.032;2022-11-15T01:07:51;100330.34;;;5.59
67515;BMP280;60646;55.802;37.032;2022-11-15T01:10:36;100322.00;;;5.48
67515;BMP280;60646;55.802;37.032;2022-11-15T01:13:20;100325.31;;;5.52
67515;BMP280;60646;55.802;37.032;2022-11-15T01:16:11;100328.25;;;5.54
67515;BMP280;60646;55.802;37.032;2022-11-15T01:18:55;100323.28;;;5.43
67515;BMP280;60646;55.802;37.032;2022-11-15T01:21:40;100325.41;;;5.48
67515;BMP280;60646;55.802;37.032;2022-11-15T01:24:24;100310.44;;;5.42
67515;BMP280;60646;55.802;37.032;2022-11-15T01:27:08;100328.81;;;5.49
67515;BMP280;60646;55.802;37.032;2022-11-15T01:29:53;100310.16;;;5.40
67515;BMP280;60646;55.802;37.032;2022-11-15T01:32:37;100316.91;;;5.41
67515;BMP280;60646;55.802;37.032;2022-11-15T01:35:21;100315.00;;;5.41
67515;BMP280;60646;55.802;37.032;2022-11-15T01:38:05;100311.34;;;5.39
67515;BMP280;60646;55.802;37.032;2022-11-15T01:40:49;100325.81;;;5.47
67515;BMP280;60646;55.802;37.032;2022-11-15T01:43:36;100331.97;;;5.44
67515;BMP280;60646;55.802;37.032;2022-11-15T01:46:27;100322.19;;;5.41
67515;BMP280;60646;55.802;37.032;2022-11-15T01:49:19;100328.13;;;5.45
67515;BMP280;60646;55.802;37.032;2022-11-15T01:52:07;100320.44;;;5.38
67515;BMP280;60646;55.802;37.032;2022-11-15T01:55:05;100306.56;;;5.34
67515;BMP280;60646;55.802;37.032;2022-11-15T01:57:56;100319.56;;;5.41
67515;BMP280;60646;55.802;37.032;2022-11-15T02:00:42;100311.00;;;5.37
67515;BMP280;60646;55.802;37.032;2022-11-15T02:03:33;100308.69;;;5.39
67515;BMP280;60646;55.802;37.032;2022-11-15T02:06:18;100306.56;;;5.34
67515;BMP280;60646;55.802;37.032;2022-11-15T02:09:04;100298.72;;;5.30
67515;BMP280;60646;55.802;37.032;2022-11-15T02:11:49;100315.25;;;5.34
67515;BMP280;60646;55.802;37.032;2022-11-15T02:14:36;100280.50;;;5.19
67515;BMP280;60646;55.802;37.032;2022-11-15T02:17:34;100301.25;;;5.34
67515;BMP280;60646;55.802;37.032;2022-11-15T02:30:02;100288.75;;;5.34
67515;BMP280;60646;55.802;37.032;2022-11-15T02:36:13;100305.06;;;5.33
67515;BMP280;60646;55.802;37.032;2022-11-15T02:42:07;100305.69;;;5.37
67515;BMP280;60646;55.802;37.032;2022-11-15T02:45:17;100268.19;;;5.26
67515;BMP280;60646;55.802;37.032;2022-11-15T02:48:06;100269.47;;;5.34
67515;BMP280;60646;55.802;37.032;2022-11-15T02:50:51;100263.53;;;5.30
67515;BMP280;60646;55.802;37.032;2022-11-15T02:53:35;100255.91;;;5.32
67515;BMP280;60646;55.802;37.032;2022-11-15T02:56:19;100268.72;;;5.33
67515;BMP280;60646;55.802;37.032;2022-11-15T03:11:10;100247.94;;;5.32
67515;BMP280;60646;55.802;37.032;2022-11-15T03:17:13;100232.28;;;5.37
67515;BMP280;60646;55.802;37.032;2022-11-15T03:20:02;100233.88;;;5.35
67515;BMP280;60646;55.802;37.032;2022-11-15T03:22:48;100229.41;;;5.32
67515;BMP280;60646;55.802;37.032;2022-11-15T03:25:34;100229.09;;;5.30
67515;BMP280;60646;55.802;37.032;2022-11-15T03:28:24;100209.63;;;5.24
67515;BMP280;60646;55.802;37.032;2022-11-15T03:31:12;100213.75;;;5.25
67515;BMP280;60646;55.802;37.032;2022-11-15T03:34:32;100220.53;;;5.26
67515;BMP280;60646;55.802;37.032;2022-11-15T03:37:21;100221.28;;;5.26
67515;BMP280;60646;55.802;37.032;2022-11-15T03:40:06;100230.59;;;5.31
67515;BMP280;60646;55.802;37.032;2022-11-15T03:45:50;100214.63;;;5.22
67515;BMP280;60646;55.802;37.032;2022-11-15T03:48:39;100220.00;;;5.31
67515;BMP280;60646;55.802;37.032;2022-11-15T03:51:26;100211.41;;;5.27
67515;BMP280;60646;55.802;37.032;2022-11-15T03:54:11;100207.50;;;5.18
67515;BMP280;60646;55.802;37.032;2022-11-15T03:56:56;100214.63;;;5.22
67515;BMP280;60646;55.802;37.032;2022-11-15T03:59:40;100215.22;;;5.26
67515;BMP280;60646;55.802;37.032;2022-11-15T04:02:24;100206.75;;;5.18
67515;BMP280;60646;55.802;37.032;2022-11-15T04:05:08;100209.31;;;5.22
67515;BMP280;60646;55.802;37.032;2022-11-15T04:07:53;100207.84;;;5.20
67515;BMP280;60646;55.802;37.032;2022-11-15T04:10:37;100220.34;;;5.20
67515;BMP280;60646;55.802;37.032;2022-11-15T04:13:21;100214.28;;;5.19
67515;BMP280;60646;55.802;37.032;2022-11-15T04:16:06;100226.56;;;5.26
67515;BMP280;60646;55.802;37.032;2022-11-15T04:18:50;100219.94;;;5.22
67515;BMP280;60646;55.802;37.032;2022-11-15T04:21:54;100210.78;;;5.22
67515;BMP280;60646;55.802;37.032;2022-11-15T04:24:57;100220.41;;;5.29
67515;BMP280;60646;55.802;37.032;2022-11-15T04:27:42;100197.25;;;5.20
67515;BMP280;60646;55.802;37.032;2022-11-15T04:30:26;100197.84;;;5.25
67515;BMP280;60646;55.802;37.032;2022-11-15T04:33:11;100179.97;;;5.16
67515;BMP280;60646;55.802;37.032;2022-11-15T04:35:55;100203.78;;;5.29
67515;BMP280;60646;55.802;37.032;2022-11-15T04:38:58;100184.44;;;5.19
67515;BMP280;60646;55.802;37.032;2022-11-15T04:41:42;100187.06;;;5.19
67515;BMP280;60646;55.802;37.032;2022-11-15T04:44:25;100198.47;;;5.29
67515;BMP280;60646;55.802;37.032;2022-11-15T04:47:10;100195.19;;;5.25
67515;BMP280;60646;55.802;37.032;2022-11-15T04:49:54;100173.31;;;5.11
67515;BMP280;60646;55.802;37.032;2022-11-15T04:52:44;100178.09;;;5.16
67515;BMP280;60646;55.802;37.032;2022-11-15T04:55:33;100191.09;;;5.24
67515;BMP280;60646;55.802;37.032;2022-11-15T04:58:24;100190.53;;;5.29
67515;BMP280;60646;55.802;37.032;2022-11-15T05:01:14;100181.25;;;5.24
67515;BMP280;60646;55.802;37.032;2022-11-15T05:03:58;100184.19;;;5.26
67515;BMP280;60646;55.802;37.032;2022-11-15T05:07:23;100178.03;;;5.29
67515;BMP280;60646;55.802;37.032;2022-11-15T05:10:12;100179.63;;;5.27
67515;BMP280;60646;55.802;37.032;2022-11-15T05:12:57;100170.88;;;5.17
67515;BMP280;60646;55.802;37.032;2022-11-15T05:15:41;100168.53;;;5.19
67515;BMP280;60646;55.802;37.032;2022-11-15T05:18:25;100177.28;;;5.29
67515;BMP280;60646;55.802;37.032;2022-11-15T05:21:14;100172.34;;;5.31
67515;BMP280;60646;55.802;37.032;2022-11-15T05:24:02;100165.34;;;5.24
67515;BMP280;60646;55.802;37.032;2022-11-15T05:26:46;100151.91;;;5.18
67515;BMP280;60646;55.802;37.032;2022-11-15T05:29:30;100179.09;;;5.32
67515;BMP280;60646;55.802;37.032;2022-11-15T05:32:16;100175.28;;;5.33
67515;BMP280;60646;55.802;37.032;2022-11-15T05:35:00;100167.13;;;5.27
67515;BMP280;60646;55.802;37.032;2022-11-15T05:37:48;100166.47;;;5.36
67515;BMP280;60646;55.802;37.032;2022-11-15T05:40:33;100163.63;;;5.30
67515;BMP280;60646;55.802;37.032;2022-11-15T05:43:20;100162.03;;;5.33
67515;BMP280;60646;55.802;37.032;2022-11-15T05:46:05;100146.38;;;5.26
67515;BMP280;60646;55.802;37.032;2022-11-15T05:48:52;100147.75;;;5.30
67515;BMP280;60646;55.802;37.032;2022-11-15T05:51:37;100168.56;;;5.41
67515;BMP280;60646;55.802;37.032;2022-11-15T05:54:23;100161.19;;;5.36
67515;BMP280;60646;55.802;37.032;2022-11-15T05:57:08;100155.22;;;5.44
67515;BMP280;60646;55.802;37.032;2022-11-15T05:59:53;100155.63;;;5.43
67515;BMP280;60646;55.802;37.032;2022-11-15T06:02:38;100163.69;;;5.52
67515;BMP280;60646;55.802;37.032;2022-11-15T06:09:18;100149.81;;;5.48
67515;BMP280;60646;55.802;37.032;2022-11-15T06:12:16;100155.91;;;5.57
67515;BMP280;60646;55.802;37.032;2022-11-15T06:18:13;100143.06;;;5.56
67515;BMP280;60646;55.802;37.032;2022-11-15T06:21:09;100143.69;;;5.60
67515;BMP280;60646;55.802;37.032;2022-11-15T06:23:54;100139.16;;;5.60
67515;BMP280;60646;55.802;37.032;2022-11-15T06:26:42;100131.94;;;5.61
67515;BMP280;60646;55.802;37.032;2022-11-15T06:29:33;100133.72;;;5.64
67515;BMP280;60646;55.802;37.032;2022-11-15T06:32:23;100129.03;;;5.68
67515;BMP280;60646;55.802;37.032;2022-11-15T06:35:11;100122.91;;;5.71
67515;BMP280;60646;55.802;37.032;2022-11-15T06:41:37;100088.47;;;5.58
67515;BMP280;60646;55.802;37.032;2022-11-15T06:44:23;100097.25;;;5.68
67515;BMP280;60646;55.802;37.032;2022-11-15T06:47:20;100101.41;;;5.78
67515;BMP280;60646;55.802;37.032;2022-11-15T06:54:02;100097.06;;;5.84
67515;BMP280;60646;55.802;37.032;2022-11-15T06:56:57;100109.28;;;5.91
67515;BMP280;60646;55.802;37.032;2022-11-15T06:59:44;100097.31;;;5.86
67515;BMP280;60646;55.802;37.032;2022-11-15T07:02:39;100107.44;;;6.00
67515;BMP280;60646;55.802;37.032;2022-11-15T07:05:42;100094.00;;;5.95
67515;BMP280;60646;55.802;37.032;2022-11-15T07:09:48;100087.41;;;5.99
67515;BMP280;60646;55.802;37.032;2022-11-15T07:17:01;100080.47;;;6.02
67515;BMP280;60646;55.802;37.032;2022-11-15T07:20:17;100092.63;;;6.12
67515;BMP280;60646;55.802;37.032;2022-11-15T07:28:04;100076.81;;;6.08
67515;BMP280;60646;55.802;37.032;2022-11-15T07:31:22;100074.19;;;6.17
67515;BMP280;60646;55.802;37.032;2022-11-15T07:35:15;100029.19;;;5.96
67515;BMP280;60646;55.802;37.032;2022-11-15T07:38:01;100046.94;;;6.08
67515;BMP280;60646;55.802;37.032;2022-11-15T07:40:47;100052.97;;;6.17
67515;BMP280;60646;55.802;37.032;2022-11-15T07:43:42;100055.53;;;6.21
67515;BMP280;60646;55.802;37.032;2022-11-15T07:46:26;100040.34;;;6.12
67515;BMP280;60646;55.802;37.032;2022-11-15T07:49:11;100034.72;;;6.10
67515;BMP280;60646;55.802;37.032;2022-11-15T07:51:55;100036.03;;;6.15
67515;BMP280;60646;55.802;37.032;2022-11-15T07:54:39;100056.28;;;6.31
67515;BMP280;60646;55.802;37.032;2022-11-15T07:57:27;100028.53;;;6.22
67515;BMP280;60646;55.802;37.032;2022-11-15T08:00:57;99985.19;;;6.07
67515;BMP280;60646;55.802;37.032;2022-11-15T08:04:36;100032.13;;;6.38
67515;BMP280;60646;55.802;37.032;2022-11-15T08:07:35;100015.28;;;6.32
67515;BMP280;60646;55.802;37.032;2022-11-15T08:10:38;100032.59;;;6.54
67515;BMP280;60646;55.802;37.032;2022-11-15T08:13:30;100008.41;;;6.43
67515;BMP280;60646;55.802;37.032;2022-11-15T08:16:14;100018.00;;;6.50
67515;BMP280;60646;55.802;37.032;2022-11-15T08:22:33;100015.50;;;6.64
67515;BMP280;60646;55.802;37.032;2022-11-15T08:25:27;100025.53;;;6.69
67515;BMP280;60646;55.802;37.032;2022-11-15T08:28:20;100019.47;;;6.69
67515;BMP280;60646;55.802;37.032;2022-11-15T08:31:29;99997.06;;;6.70
67515;BMP280;60646;55.802;37.032;2022-11-15T08:34:32;99988.19;;;6.55
67515;BMP280;60646;55.802;37.032;2022-11-15T08:37:19;99998.09;;;6.63
67515;BMP280;60646;55.802;37.032;2022-11-15T08:40:05;99993.53;;;6.64
67515;BMP280;60646;55.802;37.032;2022-11-15T08:43:16;100008.28;;;6.74
67515;BMP280;60646;55.802;37.032;2022-11-15T08:46:41;99955.50;;;6.49
67515;BMP280;60646;55.802;37.032;2022-11-15T08:49:29;99996.16;;;6.73
67515;BMP280;60646;55.802;37.032;2022-11-15T08:52:20;99992.94;;;6.78
67515;BMP280;60646;55.802;37.032;2022-11-15T08:55:37;100005.03;;;6.88
67515;BMP280;60646;55.802;37.032;2022-11-15T09:02:45;99966.97;;;6.64
67515;BMP280;60646;55.802;37.032;2022-11-15T09:06:40;99995.91;;;6.89
67515;BMP280;60646;55.802;37.032;2022-11-15T09:10:09;99940.16;;;6.53
67515;BMP280;60646;55.802;37.032;2022-11-15T09:20:14;99969.03;;;6.69
67515;BMP280;60646;55.802;37.032;2022-11-15T09:23:03;99972.00;;;6.71
67515;BMP280;60646;55.802;37.032;2022-11-15T09:25:47;99958.72;;;6.71
67515;BMP280;60646;55.802;37.032;2022-11-15T09:28:32;99979.06;;;6.83
67515;BMP280;60646;55.802;37.032;2022-11-15T09:31:17;99959.75;;;6.73
67515;BMP280;60646;55.802;37.032;2022-11-15T09:34:01;99953.88;;;6.79
67515;BMP280;60646;55.802;37.032;2022-11-15T09:36:46;99953.53;;;6.86
67515;BMP280;60646;55.802;37.032;2022-11-15T09:39:31;99942.34;;;6.72
67515;BMP280;60646;55.802;37.032;2022-11-15T09:42:31;99956.34;;;6.91
67515;BMP280;60646;55.802;37.032;2022-11-15T09:45:40;99961.94;;;6.93
67515;BMP280;60646;55.802;37.032;2022-11-15T09:51:35;99945.44;;;6.89
67515;BMP280;60646;55.802;37.032;2022-11-15T09:56:37;99934.50;;;6.96
67515;BMP280;60646;55.802;37.032;2022-11-15T10:01:37;99931.84;;;6.96
67515;BMP280;60646;55.802;37.032;2022-11-15T10:04:04;99928.16;;;6.94
67515;BMP280;60646;55.802;37.032;2022-11-15T10:06:32;99925.06;;;6.86
67515;BMP280;60646;55.802;37.032;2022-11-15T10:09:12;99940.38;;;7.00
67515;BMP280;60646;55.802;37.032;2022-11-15T10:11:39;99925.66;;;6.90
67515;BMP280;60646;55.802;37.032;2022-11-15T10:24:45;99905.66;;;6.80
67515;BMP280;60646;55.802;37.032;2022-11-15T10:27:16;99908.28;;;6.89
67515;BMP280;60646;55.802;37.032;2022-11-15T10:29:47;99885.44;;;6.73
67515;BMP280;60646;55.802;37.032;2022-11-15T10:32:17;99882.78;;;6.73
67515;BMP280;60646;55.802;37.032;2022-11-15T10:34:43;99886.75;;;6.78
67515;BMP280;60646;55.802;37.032;2022-11-15T10:37:09;99877.91;;;6.72
67515;BMP280;60646;55.802;37.032;2022-11-15T10:39:35;99883.81;;;6.76
67515;BMP280;60646;55.802;37.032;2022-11-15T10:42:26;99890.88;;;6.88
67515;BMP280;60646;55.802;37.032;2022-11-15T10:44:53;99880.13;;;6.73
67515;BMP280;60646;55.802;37.032;2022-11-15T10:47:30;99895.59;;;6.84
67515;BMP280;60646;55.802;37.032;2022-11-15T10:50:05;99892.38;;;6.80
67515;BMP280;60646;55.802;37.032;2022-11-15T10:52:34;99882.94;;;6.70
67515;BMP280;60646;55.802;37.032;2022-11-15T10:57:49;99877.31;;;6.68
67515;BMP280;60646;55.802;37.032;2022-11-15T11:05:26;99887.06;;;6.71
67515;BMP280;60646;55.802;37.032;2022-11-15T11:08:00;99878.78;;;6.69
67515;BMP280;60646;55.802;37.032;2022-11-15T11:10:27;99877.31;;;6.68
67515;BMP280;60646;55.802;37.032;2022-11-15T11:12:53;99860.22;;;6.60
67515;BMP280;60646;55.802;37.032;2022-11-15T11:15:19;99872.00;;;6.68
67515;BMP280;60646;55.802;37.032;2022-11-15T11:20:38;99868.91;;;6.69
67515;BMP280;60646;55.802;37.032;2022-11-15T11:37:50;99850.34;;;6.60
67515;BMP280;60646;55.802;37.032;2022-11-15T11:40:30;99849.34;;;6.58
67515;BMP280;60646;55.802;37.032;2022-11-15T11:47:07;99826.94;;;6.50
67515;BMP280;60646;55.802;37.032;2022-11-15T11:52:11;99829.59;;;6.50
67515;BMP280;60646;55.802;37.032;2022-11-15T11:57:15;99825.19;;;6.47
67515;BMP280;60646;55.802;37.032;2022-11-15T11:59:49;99822.22;;;6.45
67515;BMP280;60646;55.802;37.032;2022-11-15T12:05:43;99807.22;;;6.42
67515;BMP280;60646;55.802;37.032;2022-11-15T12:11:10;99795.72;;;6.27
67515;BMP280;60646;55.802;37.032;2022-11-15T12:13:40;99804.72;;;6.29
67515;BMP280;60646;55.802;37.032;2022-11-15T12:16:27;99809.88;;;6.33
67515;BMP280;60646;55.802;37.032;2022-11-15T12:18:55;99795.72;;;6.27
67515;BMP280;60646;55.802;37.032;2022-11-15T12:21:46;99795.72;;;6.27
67515;BMP280;60646;55.802;37.032;2022-11-15T12:30:04;99773.81;;;6.17
67515;BMP280;60646;55.802;37.032;2022-11-15T12:32:37;99761.56;;;6.01
67515;BMP280;60646;55.802;37.032;2022-11-15T12:35:05;99735.66;;;5.87
67515;BMP280;60646;55.802;37.032;2022-11-15T12:41:16;99753.63;;;6.01
67515;BMP280;60646;55.802;37.032;2022-11-15T12:43:44;99759.84;;;5.98
67515;BMP280;60646;55.802;37.032;2022-11-15T12:59:58;99739.50;;;5.77
67515;BMP280;60646;55.802;37.032;2022-11-15T13:02:40;99733.59;;;5.73
67515;BMP280;60646;55.802;37.032;2022-11-15T13:10:44;99731.69;;;5.64
67515;BMP280;60646;55.802;37.032;2022-11-15T13:13:43;99721.84;;;5.65
67515;BMP280;60646;55.802;37.032;2022-11-15T13:16:18;99718.00;;;5.57
67515;BMP280;60646;55.802;37.032;2022-11-15T13:18:55;99708.56;;;5.56
67515;BMP280;60646;55.802;37.032;2022-11-15T13:21:23;99715.63;;;5.59
67515;BMP280;60646;55.802;37.032;2022-11-15T13:24:19;99710.34;;;5.59
67515;BMP280;60646;55.802;37.032;2022-11-15T13:27:30;99702.38;;;5.59
67515;BMP280;60646;55.802;37.032;2022-11-15T13:29:56;99690.03;;;5.47
67515;BMP280;60646;55.802;37.032;2022-11-15T13:32:23;99678.28;;;5.39
67515;BMP280;60646;55.802;37.032;2022-11-15T13:34:50;99694.44;;;5.50
67515;BMP280;60646;55.802;37.032;2022-11-15T13:39:49;99696.97;;;5.44
67515;BMP280;60646;55.802;37.032;2022-11-15T13:42:20;99695.91;;;5.42
67515;BMP280;60646;55.802;37.032;2022-11-15T13:44:58;99685.06;;;5.40
67515;BMP280;60646;55.802;37.032;2022-11-15T13:47:28;99685.78;;;5.40
67515;BMP280;60646;55.802;37.032;2022-11-15T13:50:09;99675.03;;;5.35
67515;BMP280;60646;55.802;37.032;2022-11-15T13:52:42;99681.38;;;5.37
67515;BMP280;60646;55.802;37.032;2022-11-15T13:55:13;99670.91;;;5.34
67515;BMP280;60646;55.802;37.032;2022-11-15T13:58:11;99657.09;;;5.20
67515;BMP280;60646;55.802;37.032;2022-11-15T14:00:42;99650.91;;;5.24
67515;BMP280;60646;55.802;37.032;2022-11-15T14:05:40;99668.97;;;5.25
67515;BMP280;60646;55.802;37.032;2022-11-15T14:08:22;99659.28;;;5.22
67515;BMP280;60646;55.802;37.032;2022-11-15T14:11:14;99660.59;;;5.27
67515;BMP280;60646;55.802;37.032;2022-11-15T14:13:41;99661.22;;;5.22
67515;BMP280;60646;55.802;37.032;2022-11-15T14:16:20;99645.00;;;5.10
67515;BMP280;60646;55.802;37.032;2022-11-15T14:18:51;99651.03;;;5.11
67515;BMP280;60646;55.802;37.032;2022-11-15T14:21:18;99659.88;;;5.17
67515;BMP280;60646;55.802;37.032;2022-11-15T14:23:44;99650.59;;;5.12
67515;BMP280;60646;55.802;37.032;2022-11-15T14:26:28;99645.03;;;5.19
67515;BMP280;60646;55.802;37.032;2022-11-15T14:28:55;99627.63;;;5.09
67515;BMP280;60646;55.802;37.032;2022-11-15T14:31:21;99623.38;;;5.03
67515;BMP280;60646;55.802;37.032;2022-11-15T14:33:47;99639.88;;;5.16
67515;BMP280;60646;55.802;37.032;2022-11-15T14:36:19;99642.09;;;5.17
67515;BMP280;60646;55.802;37.032;2022-11-15T14:38:46;99617.34;;;5.02
67515;BMP280;60646;55.802;37.032;2022-11-15T14:41:23;99627.94;;;5.11
67515;BMP280;60646;55.802;37.032;2022-11-15T14:43:50;99623.25;;;5.06
67515;BMP280;60646;55.802;37.032;2022-11-15T14:46:16;99628.69;;;5.12
67515;BMP280;60646;55.802;37.032;2022-11-15T14:48:41;99616.75;;;5.07
67515;BMP280;60646;55.802;37.032;2022-11-15T14:51:15;99613.09;;;5.05
67515;BMP280;60646;55.802;37.032;2022-11-15T14:53:42;99629.69;;;5.14
67515;BMP280;60646;55.802;37.032;2022-11-15T14:56:08;99623.25;;;5.06
67515;BMP280;60646;55.802;37.032;2022-11-15T14:58:34;99610.91;;;5.03
67515;BMP280;60646;55.802;37.032;2022-11-15T15:01:03;99626.19;;;5.17
67515;BMP280;60646;55.802;37.032;2022-11-15T15:03:36;99621.03;;;5.14
67515;BMP280;60646;55.802;37.032;2022-11-15T15:06:02;99612.78;;;5.12
67515;BMP280;60646;55.802;37.032;2022-11-15T15:08:28;99600.88;;;5.07
67515;BMP280;60646;55.802;37.032;2022-11-15T15:11:16;99608.25;;;5.12
67515;BMP280;60646;55.802;37.032;2022-11-15T15:13:42;99605.28;;;5.10
67515;BMP280;60646;55.802;37.032;2022-11-15T15:16:08;99588.38;;;5.08
67515;BMP280;60646;55.802;37.032;2022-11-15T15:18:33;99584.44;;;5.03
67515;BMP280;60646;55.802;37.032;2022-11-15T15:20:59;99589.72;;;5.03
67515;BMP280;60646;55.802;37.032;2022-11-15T15:23:31;99571.19;;;4.94
67515;BMP280;60646;55.802;37.032;2022-11-15T15:25:57;99583.69;;;5.03
67515;BMP280;60646;55.802;37.032;2022-11-15T15:28:23;99554.72;;;4.90
67515;BMP280;60646;55.802;37.032;2022-11-15T15:30:49;99577.94;;;5.04
67515;BMP280;60646;55.802;37.032;2022-11-15T15:33:15;99553.25;;;4.89
67515;BMP280;60646;55.802;37.032;2022-11-15T15:35:41;99569.41;;;5.00
67515;BMP280;60646;55.802;37.032;2022-11-15T15:38:13;99558.06;;;4.91
67515;BMP280;60646;55.802;37.032;2022-11-15T15:40:40;99548.81;;;4.86
67515;BMP280;60646;55.802;37.032;2022-11-15T15:43:06;99560.03;;;4.90
67515;BMP280;60646;55.802;37.032;2022-11-15T15:45:37;99556.31;;;4.88
67515;BMP280;60646;55.802;37.032;2022-11-15T15:48:03;99552.94;;;4.87
67515;BMP280;60646;55.802;37.032;2022-11-15T15:50:32;99551.78;;;4.88
67515;BMP280;60646;55.802;37.032;2022-11-15T15:53:00;99545.28;;;4.80
67515;BMP280;60646;55.802;37.032;2022-11-15T15:55:26;99534.13;;;4.76
67515;BMP280;60646;55.802;37.032;2022-11-15T15:57:53;99544.97;;;4.78
67515;BMP280;60646;55.802;37.032;2022-11-15T16:00:20;99531.75;;;4.78
67515;BMP280;60646;55.802;37.032;2022-11-15T16:02:48;99553.25;;;4.89
67515;BMP280;60646;55.802;37.032;2022-11-15T16:05:14;99530.59;;;4.79
67515;BMP280;60646;55.802;37.032;2022-11-15T16:07:40;99547.97;;;4.89
67515;BMP280;60646;55.802;37.032;2022-11-15T16:10:27;99546.06;;;4.90
67515;BMP280;60646;55.802;37.032;2022-11-15T16:12:54;99530.28;;;4.77
67515;BMP280;60646;55.802;37.032;2022-11-15T16:15:22;99543.84;;;4.88
67515;BMP280;60646;55.802;37.032;2022-11-15T16:17:53;99542.34;;;4.87
67515;BMP280;60646;55.802;37.032;2022-11-15T16:20:39;99535.16;;;4.88
67515;BMP280;60646;55.802;37.032;2022-11-15T16:23:14;99536.03;;;4.85
67515;BMP280;60646;55.802;37.032;2022-11-15T16:25:55;99528.69;;;4.80
67515;BMP280;60646;55.802;37.032;2022-11-15T16:28:28;99527.38;;;4.84
67515;BMP280;60646;55.802;37.032;2022-11-15T16:31:13;99528.84;;;4.85
67515;BMP280;60646;55.802;37.032;2022-11-15T16:33:39;99517.19;;;4.73
67515;BMP280;60646;55.802;37.032;2022-11-15T16:36:20;99518.09;;;4.80
67515;BMP280;60646;55.802;37.032;2022-11-15T16:38:46;99499.72;;;4.67
67515;BMP280;60646;55.802;37.032;2022-11-15T16:41:15;99520.31;;;4.72
67515;BMP280;60646;55.802;37.032;2022-11-15T16:43:49;99521.75;;;4.82
67515;BMP280;60646;55.802;37.032;2022-11-15T16:46:21;99511.47;;;4.75
67515;BMP280;60646;55.802;37.032;2022-11-15T16:48:48;99512.38;;;4.72
67515;BMP280;60646;55.802;37.032;2022-11-15T16:51:19;99517.34;;;4.79
67515;BMP280;60646;55.802;37.032;2022-11-15T16:53:45;99522.34;;;4.86
67515;BMP280;60646;55.802;37.032;2022-11-15T16:56:18;99527.97;;;4.88
67515;BMP280;60646;55.802;37.032;2022-11-15T16:58:45;99515.03;;;4.81
67515;BMP280;60646;55.802;37.032;2022-11-15T17:01:34;99514.72;;;4.88
67515;BMP280;60646;55.802;37.032;2022-11-15T17:04:02;99510.59;;;4.78
67515;BMP280;60646;55.802;37.032;2022-11-15T17:06:38;99503.81;;;4.77
67515;BMP280;60646;55.802;37.032;2022-11-15T17:09:06;99514.88;;;4.85
67515;BMP280;60646;55.802;37.032;2022-11-15T17:11:35;99499.41;;;4.74
67515;BMP280;60646;55.802;37.032;2022-11-15T17:14:01;99509.09;;;4.77
67515;BMP280;60646;55.802;37.032;2022-11-15T17:16:27;99505.28;;;4.78
67515;BMP280;60646;55.802;37.032;2022-11-15T17:18:52;99502.47;;;4.72
67515;BMP280;60646;55.802;37.032;2022-11-15T17:21:20;99503.81;;;4.77
67515;BMP280;60646;55.802;37.032;2022-11-15T17:23:50;99504.44;;;4.81
67515;BMP280;60646;55.802;37.032;2022-11-15T17:26:37;99515.47;;;4.89
67515;BMP280;60646;55.802;37.032;2022-11-15T17:29:03;99501.06;;;4.90
67515;BMP280;60646;55.802;37.032;2022-11-15T17:31:37;99490.31;;;4.84
67515;BMP280;60646;55.802;37.032;2022-11-15T17:34:04;99472.97;;;4.74
67515;BMP280;60646;55.802;37.032;2022-11-15T17:36:31;99491.91;;;4.82
67515;BMP280;60646;55.802;37.032;2022-11-15T17:38:56;99499.16;;;4.81
67515;BMP280;60646;55.802;37.032;2022-11-15T17:41:22;99490.59;;;4.77
67515;BMP280;60646;55.802;37.032;2022-11-15T17:43:48;99475.59;;;4.74
67515;BMP280;60646;55.802;37.032;2022-11-15T17:46:19;99485.91;;;4.81
67515;BMP280;60646;55.802;37.032;2022-11-15T17:48:47;99478.84;;;4.78
67515;BMP280;60646;55.802;37.032;2022-11-15T17:51:14;99490.59;;;4.86
67515;BMP280;60646;55.802;37.032;2022-11-15T17:53:42;99489.16;;;4.85
67515;BMP280;60646;55.802;37.032;2022-11-15T17:56:14;99492.09;;;4.87
67515;BMP280;60646;55.802;37.032;2022-11-15T17:58:48;99485.31;;;4.86
67515;BMP280;60646;55.802;37.032;2022-11-15T18:03:42;99470.75;;;4.72
67515;BMP280;60646;55.802;37.032;2022-11-15T18:06:12;99477.09;;;4.84
67515;BMP280;60646;55.802;37.032;2022-11-15T18:08:40;99474.44;;;4.84
67515;BMP280;60646;55.802;37.032;2022-11-15T18:11:35;99476.22;;;4.87
67515;BMP280;60646;55.802;37.032;2022-11-15T18:14:05;99473.28;;;4.85
67515;BMP280;60646;55.802;37.032;2022-11-15T18:16:34;99467.97;;;4.85